TimeCDT,TemperatureF,Dew PointF,Humidity,Sea Level PressureIn,VisibilityMPH,Wind Direction,Wind SpeedMPH,Gust SpeedMPH,PrecipitationIn,Events,Conditions,WindDirDegrees,DateUTC
12:53 AM,46.4,37.4,71,30.15,10.0,ENE,3.5,-,N/A,,Scattered Clouds,60,2013-05-10 05:53:00
1:13 AM,44.6,39.2,81,30.16,10.0,NE,5.8,-,N/A,,Mostly Cloudy,50,2013-05-10 06:13:00
1:33 AM,44.6,39.2,81,30.16,10.0,NE,6.9,-,N/A,,Mostly Cloudy,40,2013-05-10 06:33:00
1:53 AM,46.4,39.2,76,30.16,10.0,Calm,Calm,-,N/A,,Overcast,0,2013-05-10 06:53:00
2:13 AM,46.4,37.4,71,30.16,10.0,NNE,3.5,-,N/A,,Mostly Cloudy,30,2013-05-10 07:13:00
2:34 AM,46.4,37.4,71,30.15,10.0,NE,4.6,-,N/A,,Scattered Clouds,40,2013-05-10 07:34:00
3:14 AM,42.8,37.4,81,30.15,10.0,NNE,3.5,-,N/A,,Mostly Cloudy,30,2013-05-10 08:14:00
3:53 AM,41.0,35.6,81,30.15,10.0,NE,5.8,-,N/A,,Scattered Clouds,50,2013-05-10 08:53:00
4:14 AM,39.2,35.6,87,30.14,10.0,NE,6.9,-,N/A,,Clear,40,2013-05-10 09:14:00
4:34 AM,39.2,33.8,81,30.15,10.0,NE,6.9,-,N/A,,Clear,50,2013-05-10 09:34:00
4:53 AM,39.2,33.8,81,30.16,10.0,NE,5.8,-,N/A,,Scattered Clouds,50,2013-05-10 09:53:00
5:13 AM,37.4,32.0,81,30.15,10.0,NE,6.9,-,N/A,,Scattered Clouds,50,2013-05-10 10:13:00
5:33 AM,37.4,30.2,75,30.15,10.0,NE,5.8,-,N/A,,Clear,50,2013-05-10 10:33:00
5:53 AM,35.6,30.2,81,30.16,10.0,NE,5.8,-,N/A,,Clear,50,2013-05-10 10:53:00
6:14 AM,35.6,30.2,81,30.16,10.0,NE,6.9,-,N/A,,Clear,40,2013-05-10 11:14:00
6:34 AM,35.6,30.2,81,30.16,10.0,North,4.6,-,N/A,,Clear,10,2013-05-10 11:34:00
6:53 AM,37.4,30.2,75,30.16,10.0,NNW,3.5,-,N/A,,Clear,340,2013-05-10 11:53:00
7:13 AM,39.2,32.0,75,30.16,10.0,NNE,3.5,-,N/A,,Clear,30,2013-05-10 12:13:00
7:34 AM,42.8,30.2,61,30.15,10.0,NE,5.8,-,N/A,,Clear,50,2013-05-10 12:34:00
7:53 AM,42.8,30.2,61,30.16,10.0,ENE,9.2,-,N/A,,Clear,60,2013-05-10 12:53:00
8:13 AM,44.6,30.2,57,30.15,10.0,East,11.5,-,N/A,,Clear,90,2013-05-10 13:13:00
8:33 AM,44.6,28.4,53,30.15,10.0,East,11.5,-,N/A,,Clear,100,2013-05-10 13:33:00
8:54 AM,46.4,28.4,50,30.16,10.0,East,9.2,-,N/A,,Clear,100,2013-05-10 13:54:00
9:13 AM,46.4,28.4,50,30.15,10.0,East,9.2,-,N/A,,Clear,90,2013-05-10 14:13:00
9:33 AM,48.2,28.4,46,30.14,10.0,ESE,9.2,-,N/A,,Clear,110,2013-05-10 14:33:00
9:53 AM,50.0,26.6,40,30.14,10.0,ESE,5.8,-,N/A,,Clear,120,2013-05-10 14:53:00
10:13 AM,51.8,28.4,41,30.13,10.0,SE,6.9,-,N/A,,Clear,130,2013-05-10 15:13:00
10:34 AM,53.6,26.6,35,30.13,10.0,East,6.9,-,N/A,,Clear,100,2013-05-10 15:34:00
10:53 AM,53.6,26.6,35,30.13,10.0,East,3.5,-,N/A,,Clear,90,2013-05-10 15:53:00
11:13 AM,53.6,23.0,30,30.12,10.0,SSE,3.5,-,N/A,,Clear,150,2013-05-10 16:13:00
11:33 AM,55.4,21.2,26,30.11,10.0,SSW,3.5,-,N/A,,Clear,210,2013-05-10 16:33:00
12:13 PM,59.0,21.2,23,30.10,10.0,WSW,5.8,-,N/A,,Clear,240,2013-05-10 17:13:00
12:34 PM,59.0,21.2,23,30.09,10.0,West,3.5,-,N/A,,Clear,270,2013-05-10 17:34:00
12:53 PM,60.8,23.0,23,30.09,10.0,East,3.5,-,N/A,,Clear,90,2013-05-10 17:53:00
1:13 PM,62.6,23.0,22,30.07,10.0,SSE,5.8,-,N/A,,Clear,150,2013-05-10 18:13:00
1:34 PM,62.6,23.0,22,30.07,10.0,Calm,Calm,-,N/A,,Clear,0,2013-05-10 18:34:00
1:54 PM,62.6,24.8,24,30.06,10.0,South,4.6,-,N/A,,Clear,170,2013-05-10 18:54:00
2:13 PM,62.6,24.8,24,30.05,10.0,SSW,3.5,-,N/A,,Clear,200,2013-05-10 19:13:00
2:33 PM,64.4,26.6,24,30.04,10.0,SSW,6.9,-,N/A,,Clear,210,2013-05-10 19:33:00
2:53 PM,64.4,23.0,21,30.03,10.0,WSW,4.6,-,N/A,,Clear,240,2013-05-10 19:53:00
3:15 PM,66.2,24.8,21,30.02,10.0,West,8.1,-,N/A,,Clear,260,2013-05-10 20:15:00
3:34 PM,66.2,23.0,19,30.01,10.0,SW,10.4,16.1,N/A,,Clear,230,2013-05-10 20:34:00
3:53 PM,66.2,24.8,21,29.99,10.0,West,8.1,-,N/A,,Clear,280,2013-05-10 20:53:00
4:13 PM,69.8,24.8,18,29.98,10.0,WSW,10.4,-,N/A,,Clear,250,2013-05-10 21:13:00
4:33 PM,68.0,26.6,21,29.97,10.0,WSW,9.2,-,N/A,,Clear,250,2013-05-10 21:33:00
4:53 PM,69.8,26.6,20,29.97,10.0,WSW,9.2,-,N/A,,Clear,250,2013-05-10 21:53:00
5:13 PM,71.6,28.4,20,29.95,10.0,West,9.2,16.1,N/A,,Clear,260,2013-05-10 22:13:00
5:33 PM,71.6,28.4,20,29.95,10.0,SW,12.7,18.4,N/A,,Clear,230,2013-05-10 22:33:00
5:54 PM,71.6,28.4,20,29.93,10.0,SW,8.1,-,N/A,,Clear,230,2013-05-10 22:54:00
6:13 PM,71.6,26.6,19,29.91,10.0,WSW,8.1,17.3,N/A,,Clear,240,2013-05-10 23:13:00
6:34 PM,69.8,28.4,21,29.90,10.0,WSW,9.2,-,N/A,,Clear,240,2013-05-10 23:34:00
6:53 PM,71.6,30.2,22,29.90,10.0,WSW,8.1,-,N/A,,Scattered Clouds,250,2013-05-10 23:53:00
7:13 PM,69.8,33.8,27,29.89,10.0,West,12.7,-,N/A,,Scattered Clouds,260,2013-05-11 00:13:00
7:33 PM,69.8,37.4,31,29.91,10.0,West,25.3,33.4,N/A,,Mostly Cloudy,280,2013-05-11 00:33:00
7:53 PM,64.4,44.6,49,29.90,10.0,West,9.2,-,N/A,,Mostly Cloudy,270,2013-05-11 00:53:00
8:13 PM,62.6,48.2,59,29.89,10.0,WSW,4.6,-,N/A,,Mostly Cloudy,250,2013-05-11 01:13:00
8:33 PM,60.8,48.2,63,29.92,10.0,NW,16.1,26.5,N/A,Rain,Light Rain,310,2013-05-11 01:33:00
8:54 PM,57.2,42.8,59,29.93,10.0,North,27.6,40.3,N/A,,Scattered Clouds,350,2013-05-11 01:54:00
9:14 PM,57.2,41.0,55,29.96,10.0,NNW,34.5,41.4,N/A,,Clear,340,2013-05-11 02:14:00
9:33 PM,55.4,39.2,54,29.98,10.0,North,34.5,43.7,N/A,,Mostly Cloudy,350,2013-05-11 02:33:00
9:53 PM,53.6,37.4,54,29.99,10.0,North,29.9,36.8,N/A,,Scattered Clouds,350,2013-05-11 02:53:00
10:14 PM,53.6,33.8,47,30.01,10.0,North,29.9,39.1,N/A,,Clear,350,2013-05-11 03:14:00
10:33 PM,51.8,33.8,50,30.03,10.0,NNW,29.9,38.0,N/A,,Clear,340,2013-05-11 03:33:00
10:54 PM,50.0,33.8,54,30.04,10.0,NNW,21.9,29.9,N/A,,Clear,340,2013-05-11 03:54:00
11:28 PM,48.2,33.8,58,30.05,10.0,NNW,17.3,-,N/A,,Clear,340,2013-05-11 04:28:00
11:34 PM,48.2,33.8,58,30.05,10.0,NNW,17.3,-,N/A,,Clear,340,2013-05-11 04:34:00
11:54 PM,46.4,33.8,62,30.06,10.0,NNW,15.0,-,N/A,,Clear,340,2013-05-11 04:54:00